Time;durP1;ratioP1;P1;durP2;ratioP2;P2;SDS_P1;SDS_P2;PMS_P1;PMS_P2;Temp;Humidity;BMP_temperature;BMP_pressure;BME280_temperature;BME280_humidity;BME280_pressure;Samples;Min_cycle;Max_cycle;Signal;HPM_P1;HPM_P2
2022/12/23 00:00:59;;;;;;;5.63;4.43;;;;;;;;;;4953539;28;20034;-79
2022/12/23 00:03:25;;;;;;;7.95;5.00;;;;;;;;;;4952971;29;20025;-77
2022/12/23 00:05:51;;;;;;;7.03;4.40;;;;;;;;;;4953252;29;20039;-77
2022/12/23 00:08:17;;;;;;;7.43;4.10;;;;;;;;;;4952569;29;20406;-76
2022/12/23 00:10:42;;;;;;;7.07;3.83;;;;;;;;;;4952228;28;20383;-79
2022/12/23 00:16:08;;;;;;;7.68;3.40;;;;;;;;;;4955586;29;20477;-79
2022/12/23 00:18:34;;;;;;;6.30;3.05;;;;;;;;;;4919154;29;20153;-79
2022/12/23 00:21:01;;;;;;;7.57;3.58;;;;;;;;;;4951404;29;20514;-77
2022/12/23 00:23:27;;;;;;;8.90;4.40;;;;;;;;;;4959677;28;20035;-79
2022/12/23 00:25:54;;;;;;;7.10;4.15;;;;;;;;;;4964527;28;20097;-82
2022/12/23 00:28:22;;;;;;;7.00;4.05;;;;;;;;;;4945649;29;20034;-82
2022/12/23 00:30:53;;;;;;;8.88;3.58;;;;;;;;;;4933652;28;21172;-79
2022/12/23 00:33:22;;;;;;;8.75;4.85;;;;;;;;;;4951246;29;20057;-82
2022/12/23 00:35:48;;;;;;;7.68;4.63;;;;;;;;;;4950912;29;20428;-82
2022/12/23 00:38:15;;;;;;;8.82;4.15;;;;;;;;;;4952877;29;20057;-82
2022/12/23 00:43:24;;;;;;;10.35;4.97;;;;;;;;;;4954062;29;20547;-84
2022/12/23 00:45:50;;;;;;;8.63;5.10;;;;;;;;;;4955133;29;20039;-82
2022/12/23 00:51:01;;;;;;;7.80;4.35;;;;;;;;;;4957602;29;20042;-82
2022/12/23 00:53:26;;;;;;;8.73;4.35;;;;;;;;;;4938401;29;20034;-82
2022/12/23 00:55:52;;;;;;;9.85;4.40;;;;;;;;;;4954452;29;20027;-82
2022/12/23 00:58:19;;;;;;;9.60;5.72;;;;;;;;;;4952948;29;20062;-81
2022/12/23 01:06:14;;;;;;;10.30;5.43;;;;;;;;;;4954904;29;20085;-81
2022/12/23 01:08:40;;;;;;;12.05;5.47;;;;;;;;;;4935662;29;20020;-82
2022/12/23 01:11:08;;;;;;;12.65;5.07;;;;;;;;;;4953033;29;20134;-83
2022/12/23 01:13:35;;;;;;;8.60;5.40;;;;;;;;;;4936779;29;20373;-82
2022/12/23 01:16:09;;;;;;;9.02;5.18;;;;;;;;;;4954892;29;20034;-82
2022/12/23 01:18:36;;;;;;;8.45;5.07;;;;;;;;;;4957055;29;20041;-82
2022/12/23 01:21:04;;;;;;;8.82;4.88;;;;;;;;;;4952915;29;20058;-82
2022/12/23 01:23:29;;;;;;;8.02;4.65;;;;;;;;;;4952669;29;20035;-82
2022/12/23 01:26:00;;;;;;;10.07;4.75;;;;;;;;;;4936286;29;20490;-81
2022/12/23 01:28:28;;;;;;;9.05;4.28;;;;;;;;;;4953707;29;20031;-82
2022/12/23 01:30:54;;;;;;;8.90;4.10;;;;;;;;;;4952682;29;20035;-81
2022/12/23 01:33:19;;;;;;;8.90;4.45;;;;;;;;;;4951996;29;20110;-81
2022/12/23 01:35:45;;;;;;;8.65;4.05;;;;;;;;;;4952243;29;20035;-81
2022/12/23 01:38:10;;;;;;;8.93;4.10;;;;;;;;;;4952898;29;20489;-81
2022/12/23 01:40:38;;;;;;;13.85;5.00;;;;;;;;;;4936238;29;20027;-81
2022/12/23 01:43:04;;;;;;;9.77;4.28;;;;;;;;;;4951511;28;20614;-81
2022/12/23 01:45:31;;;;;;;8.45;4.13;;;;;;;;;;4951694;29;20102;-81
2022/12/23 01:48:15;;;;;;;10.73;4.00;;;;;;;;;;4953222;29;20035;-82
2022/12/23 01:50:48;;;;;;;11.27;4.22;;;;;;;;;;4935824;29;20051;-83
2022/12/23 01:53:25;;;;;;;8.10;3.90;;;;;;;;;;4951993;28;20479;-82
2022/12/23 01:56:01;;;;;;;5.82;3.67;;;;;;;;;;4936122;29;20078;-82
2022/12/23 01:58:30;;;;;;;6.95;3.85;;;;;;;;;;4952174;29;20092;-82
2022/12/23 02:03:41;;;;;;;8.80;3.80;;;;;;;;;;4953365;29;20034;-82
2022/12/23 02:09:16;;;;;;;8.70;3.70;;;;;;;;;;4953809;29;20062;-82
2022/12/23 02:12:14;;;;;;;7.70;3.47;;;;;;;;;;4952017;29;20027;-82
2022/12/23 02:17:43;;;;;;;13.25;4.30;;;;;;;;;;4953529;29;20043;-81
2022/12/23 02:20:14;;;;;;;10.65;4.50;;;;;;;;;;4953427;28;20074;-83
2022/12/23 02:23:30;;;;;;;11.20;3.90;;;;;;;;;;4936189;29;20149;-78
2022/12/23 02:26:33;;;;;;;9.52;3.72;;;;;;;;;;4914688;29;20170;-81
2022/12/23 02:29:17;;;;;;;10.25;3.72;;;;;;;;;;4953397;29;20035;-81
2022/12/23 02:31:55;;;;;;;7.17;3.37;;;;;;;;;;4935635;29;20031;-82
2022/12/23 02:34:39;;;;;;;12.63;3.37;;;;;;;;;;4935065;29;20123;-82
2022/12/23 02:37:18;;;;;;;8.15;3.67;;;;;;;;;;4937520;29;20046;-81
2022/12/23 02:39:43;;;;;;;12.75;4.03;;;;;;;;;;4950854;29;20484;-81
2022/12/23 02:42:15;;;;;;;11.00;3.58;;;;;;;;;;4952717;29;20118;-81
2022/12/23 02:44:44;;;;;;;7.00;3.20;;;;;;;;;;4951958;29;20098;-77
2022/12/23 02:47:14;;;;;;;10.07;3.33;;;;;;;;;;4965057;29;20038;-80
2022/12/23 02:49:44;;;;;;;8.25;3.15;;;;;;;;;;4959862;29;20053;-82
2022/12/23 02:52:13;;;;;;;8.45;2.97;;;;;;;;;;4952806;28;20023;-81
2022/12/23 02:54:46;;;;;;;6.95;2.47;;;;;;;;;;4951328;29;20031;-82
2022/12/23 02:57:16;;;;;;;8.38;3.00;;;;;;;;;;4968765;28;20043;-81
2022/12/23 02:59:47;;;;;;;8.17;2.90;;;;;;;;;;4954264;29;20046;-77
2022/12/23 03:02:12;;;;;;;7.57;3.00;;;;;;;;;;4969122;28;20126;-81
2022/12/23 03:04:39;;;;;;;9.10;3.53;;;;;;;;;;4953987;29;20055;-81
2022/12/23 03:07:05;;;;;;;16.30;3.50;;;;;;;;;;4952497;29;20039;-81
2022/12/23 03:09:43;;;;;;;5.77;2.63;;;;;;;;;;4953259;29;20027;-80
2022/12/23 03:12:38;;;;;;;7.45;2.70;;;;;;;;;;4952546;29;20035;-81
2022/12/23 03:15:06;;;;;;;11.02;3.28;;;;;;;;;;4950623;29;20026;-81
2022/12/23 03:18:01;;;;;;;9.68;2.80;;;;;;;;;;4935084;29;20526;-83
2022/12/23 03:20:51;;;;;;;6.72;3.05;;;;;;;;;;4950900;29;20031;-82
2022/12/23 03:23:28;;;;;;;15.07;3.40;;;;;;;;;;4950788;29;20031;-81
2022/12/23 03:26:01;;;;;;;9.13;3.10;;;;;;;;;;4951591;29;20027;-83
2022/12/23 03:28:44;;;;;;;13.10;3.28;;;;;;;;;;4952138;29;20145;-82
2022/12/23 03:31:14;;;;;;;10.15;2.72;;;;;;;;;;4950459;28;20373;-82
2022/12/23 03:33:45;;;;;;;12.05;2.83;;;;;;;;;;4952441;29;20024;-83
2022/12/23 03:36:27;;;;;;;11.35;2.88;;;;;;;;;;4935195;29;20653;-82
2022/12/23 03:38:54;;;;;;;8.50;3.00;;;;;;;;;;4915307;29;20019;-82
2022/12/23 03:41:39;;;;;;;9.30;3.60;;;;;;;;;;4933143;29;20180;-82
2022/12/23 03:44:14;;;;;;;8.10;3.03;;;;;;;;;;4932843;29;20182;-82
2022/12/23 03:46:41;;;;;;;11.67;3.40;;;;;;;;;;4931367;29;20031;-82
2022/12/23 03:49:38;;;;;;;7.30;2.80;;;;;;;;;;4932600;29;20565;-82
2022/12/23 03:52:14;;;;;;;7.80;2.67;;;;;;;;;;4927815;29;20126;-82
2022/12/23 03:54:46;;;;;;;7.60;2.88;;;;;;;;;;4932566;29;20027;-81
2022/12/23 03:57:12;;;;;;;8.38;3.05;;;;;;;;;;4931070;29;20854;-82
2022/12/23 03:59:44;;;;;;;10.57;2.47;;;;;;;;;;4932382;29;20039;-82
2022/12/23 04:02:36;;;;;;;9.90;3.23;;;;;;;;;;4930921;29;20039;-81
2022/12/23 04:05:07;;;;;;;12.45;2.97;;;;;;;;;;4930694;29;20040;-81
2022/12/23 04:07:44;;;;;;;10.43;3.00;;;;;;;;;;4932411;29;20039;-81
2022/12/23 04:10:11;;;;;;;9.73;3.00;;;;;;;;;;4932135;29;20024;-82
2022/12/23 04:12:37;;;;;;;7.55;2.80;;;;;;;;;;4930873;29;20507;-82
2022/12/23 04:15:03;;;;;;;9.68;2.88;;;;;;;;;;4930365;29;20024;-81
2022/12/23 04:17:29;;;;;;;8.70;2.85;;;;;;;;;;4930927;29;20030;-82
2022/12/23 04:19:54;;;;;;;6.60;2.80;;;;;;;;;;4931860;29;20031;-81
2022/12/23 04:22:20;;;;;;;7.35;2.55;;;;;;;;;;4930858;29;20032;-81
2022/12/23 04:24:45;;;;;;;9.65;2.88;;;;;;;;;;4930613;29;20031;-81
2022/12/23 04:27:12;;;;;;;7.57;3.00;;;;;;;;;;4932168;29;20039;-82
2022/12/23 04:29:38;;;;;;;7.63;2.73;;;;;;;;;;4930610;29;20114;-81
2022/12/23 04:32:04;;;;;;;10.13;3.33;;;;;;;;;;4930768;29;20099;-82
2022/12/23 04:34:29;;;;;;;11.57;3.07;;;;;;;;;;4932306;29;20027;-81
2022/12/23 04:36:55;;;;;;;9.00;2.80;;;;;;;;;;4932069;29;20020;-82
2022/12/23 04:39:21;;;;;;;9.30;2.92;;;;;;;;;;4947509;29;20393;-82
2022/12/23 04:41:47;;;;;;;10.20;3.37;;;;;;;;;;4931858;29;20461;-83
2022/12/23 04:44:12;;;;;;;7.30;3.23;;;;;;;;;;4936070;29;20539;-82
2022/12/23 04:46:38;;;;;;;8.23;2.50;;;;;;;;;;4936824;29;20024;-82
2022/12/23 04:49:03;;;;;;;8.27;3.03;;;;;;;;;;4935027;29;20535;-81
2022/12/23 04:51:30;;;;;;;11.65;2.70;;;;;;;;;;4950986;29;20027;-82
2022/12/23 04:53:55;;;;;;;6.90;2.35;;;;;;;;;;4947616;29;20377;-82
2022/12/23 04:56:21;;;;;;;4.15;2.20;;;;;;;;;;4935611;29;20047;-82
2022/12/23 04:58:47;;;;;;;7.80;2.40;;;;;;;;;;4934270;29;20038;-81
2022/12/23 05:01:12;;;;;;;10.90;3.53;;;;;;;;;;4935029;29;20211;-82
2022/12/23 05:03:39;;;;;;;13.02;2.05;;;;;;;;;;4948037;29;20032;-81
2022/12/23 05:06:05;;;;;;;9.90;2.45;;;;;;;;;;4938706;29;20507;-81
2022/12/23 05:08:31;;;;;;;17.33;3.15;;;;;;;;;;4934495;29;20034;-82
2022/12/23 05:10:57;;;;;;;10.30;2.65;;;;;;;;;;4935472;29;20028;-82
2022/12/23 05:13:23;;;;;;;8.45;3.40;;;;;;;;;;4934713;29;20138;-82
2022/12/23 05:15:50;;;;;;;16.67;2.97;;;;;;;;;;4934533;29;20476;-83
2022/12/23 05:18:16;;;;;;;3.92;2.10;;;;;;;;;;4934395;29;20477;-82
2022/12/23 05:20:42;;;;;;;9.55;2.53;;;;;;;;;;4933984;29;20078;-82
2022/12/23 05:23:07;;;;;;;6.93;2.35;;;;;;;;;;4933325;29;20027;-82
2022/12/23 05:25:35;;;;;;;10.40;2.40;;;;;;;;;;4935123;29;20110;-82
2022/12/23 05:28:00;;;;;;;9.55;3.53;;;;;;;;;;4933191;29;20464;-82
2022/12/23 05:30:26;;;;;;;10.07;3.75;;;;;;;;;;4934665;29;20094;-81
2022/12/23 05:32:55;;;;;;;7.88;2.83;;;;;;;;;;4933016;29;20027;-81
2022/12/23 05:35:25;;;;;;;7.00;3.38;;;;;;;;;;4934471;29;20063;-81
2022/12/23 05:37:51;;;;;;;8.65;3.10;;;;;;;;;;4948017;29;20467;-80
2022/12/23 05:40:16;;;;;;;7.40;2.58;;;;;;;;;;4969922;28;20162;-81
2022/12/23 05:42:42;;;;;;;9.45;2.63;;;;;;;;;;4953234;29;20138;-81
2022/12/23 05:45:08;;;;;;;9.73;2.90;;;;;;;;;;4967903;28;20027;-81
2022/12/23 05:47:34;;;;;;;8.77;3.05;;;;;;;;;;4968378;28;20034;-80
2022/12/23 05:49:59;;;;;;;10.50;3.25;;;;;;;;;;4954003;29;20027;-82
2022/12/23 05:52:25;;;;;;;8.15;2.95;;;;;;;;;;4969118;28;20026;-81
2022/12/23 05:54:50;;;;;;;10.27;2.42;;;;;;;;;;4954367;28;20038;-81
2022/12/23 05:57:16;;;;;;;9.25;2.20;;;;;;;;;;4970130;28;20031;-82
2022/12/23 05:59:41;;;;;;;4.50;2.40;;;;;;;;;;4956933;29;20035;-83
2022/12/23 06:02:07;;;;;;;6.55;2.85;;;;;;;;;;4970537;28;20091;-79
2022/12/23 06:04:33;;;;;;;4.75;2.03;;;;;;;;;;4953058;29;20034;-82
2022/12/23 06:06:58;;;;;;;6.43;2.85;;;;;;;;;;4968123;28;20027;-81
2022/12/23 06:09:24;;;;;;;7.40;2.70;;;;;;;;;;4954316;29;20044;-80
2022/12/23 06:11:49;;;;;;;9.88;2.53;;;;;;;;;;4971306;28;20023;-82
2022/12/23 06:14:15;;;;;;;6.80;2.40;;;;;;;;;;4955605;29;20376;-82
2022/12/23 06:16:40;;;;;;;4.25;2.45;;;;;;;;;;4954190;29;20027;-81
2022/12/23 06:19:06;;;;;;;6.93;3.08;;;;;;;;;;4970014;28;20027;-81
2022/12/23 06:21:31;;;;;;;10.18;2.88;;;;;;;;;;4953848;29;20047;-82
2022/12/23 06:23:57;;;;;;;10.65;2.92;;;;;;;;;;4969775;28;20038;-82
2022/12/23 06:26:23;;;;;;;4.60;2.58;;;;;;;;;;4955882;29;20134;-82
2022/12/23 06:28:48;;;;;;;7.57;2.50;;;;;;;;;;4963466;29;20039;-83
2022/12/23 06:31:14;;;;;;;11.90;3.15;;;;;;;;;;4963252;28;20027;-81
2022/12/23 06:33:39;;;;;;;7.28;2.65;;;;;;;;;;4954848;28;20042;-84
2022/12/23 06:36:06;;;;;;;7.53;2.78;;;;;;;;;;4969804;28;20027;-83
2022/12/23 06:38:31;;;;;;;6.40;2.45;;;;;;;;;;4954455;29;20019;-81
2022/12/23 06:40:57;;;;;;;12.02;2.83;;;;;;;;;;4952672;29;20105;-84
2022/12/23 06:43:23;;;;;;;5.57;2.03;;;;;;;;;;4935594;29;20105;-81
2022/12/23 06:45:49;;;;;;;7.53;2.88;;;;;;;;;;4933992;29;20035;-80
2022/12/23 06:48:15;;;;;;;7.47;3.13;;;;;;;;;;4935131;29;20093;-82
2022/12/23 06:50:41;;;;;;;4.35;2.17;;;;;;;;;;4934724;29;20098;-82
2022/12/23 06:53:07;;;;;;;4.10;2.28;;;;;;;;;;4949746;29;20654;-81
2022/12/23 06:55:33;;;;;;;14.52;4.30;;;;;;;;;;4948790;28;20086;-82
2022/12/23 06:57:58;;;;;;;8.57;2.53;;;;;;;;;;4934053;29;20028;-83
2022/12/23 07:00:24;;;;;;;10.60;2.55;;;;;;;;;;4932245;29;20050;-83
2022/12/23 07:02:52;;;;;;;5.97;2.60;;;;;;;;;;4948994;29;20038;-83
2022/12/23 07:05:17;;;;;;;7.05;3.45;;;;;;;;;;4933580;29;20028;-81
2022/12/23 07:07:43;;;;;;;11.00;2.95;;;;;;;;;;4932922;29;20616;-82
2022/12/23 07:10:10;;;;;;;9.05;3.05;;;;;;;;;;4934052;29;20020;-82
2022/12/23 07:12:37;;;;;;;21.77;2.97;;;;;;;;;;4933477;29;20099;-84
2022/12/23 07:15:04;;;;;;;5.72;3.17;;;;;;;;;;4936762;29;20027;-82
2022/12/23 07:17:30;;;;;;;12.15;3.17;;;;;;;;;;4934756;29;20038;-81
2022/12/23 07:19:55;;;;;;;7.60;2.88;;;;;;;;;;4936137;29;20115;-83
2022/12/23 07:22:21;;;;;;;10.40;3.67;;;;;;;;;;4934007;29;20134;-83
2022/12/23 07:24:46;;;;;;;8.98;2.95;;;;;;;;;;4947917;28;20038;-81
2022/12/23 07:27:13;;;;;;;7.30;3.30;;;;;;;;;;4932863;29;20079;-83
2022/12/23 07:29:39;;;;;;;10.73;2.95;;;;;;;;;;4934997;29;20050;-84
2022/12/23 07:32:04;;;;;;;7.90;3.08;;;;;;;;;;4932048;29;20472;-80
2022/12/23 07:34:30;;;;;;;6.97;3.05;;;;;;;;;;4930985;29;20120;-79
2022/12/23 07:36:55;;;;;;;10.10;3.83;;;;;;;;;;4935277;28;20027;-78
2022/12/23 07:39:21;;;;;;;6.60;3.03;;;;;;;;;;4948376;28;20027;-79
2022/12/23 07:41:46;;;;;;;8.52;3.58;;;;;;;;;;4958956;28;20023;-81
2022/12/23 07:44:12;;;;;;;8.05;3.25;;;;;;;;;;4950026;29;20054;-81
2022/12/23 07:46:39;;;;;;;8.38;5.15;;;;;;;;;;4950318;29;20149;-80
2022/12/23 07:49:04;;;;;;;9.13;4.70;;;;;;;;;;4948788;28;20132;-78
2022/12/23 07:51:30;;;;;;;9.90;3.28;;;;;;;;;;4950017;29;20632;-79
2022/12/23 07:53:56;;;;;;;9.05;3.25;;;;;;;;;;4934420;29;20079;-80
2022/12/23 07:56:22;;;;;;;7.05;3.28;;;;;;;;;;4952399;29;20180;-78
2022/12/23 07:58:48;;;;;;;7.28;3.25;;;;;;;;;;4953219;29;20035;-80
2022/12/23 08:01:14;;;;;;;7.15;4.13;;;;;;;;;;4952332;29;20036;-82
2022/12/23 08:03:39;;;;;;;8.05;3.88;;;;;;;;;;4952428;29;20023;-79
2022/12/23 08:06:14;;;;;;;5.35;3.22;;;;;;;;;;4939429;29;20034;-81
2022/12/23 08:08:41;;;;;;;10.65;3.50;;;;;;;;;;4959299;29;20054;-79
2022/12/23 08:11:09;;;;;;;7.03;3.20;;;;;;;;;;4951456;29;20488;-78
2022/12/23 08:13:38;;;;;;;10.20;3.53;;;;;;;;;;4950334;29;20031;-79
2022/12/23 08:16:05;;;;;;;9.23;3.20;;;;;;;;;;4950056;29;20035;-79
2022/12/23 08:18:34;;;;;;;6.57;2.65;;;;;;;;;;4936374;29;20618;-80
2022/12/23 08:21:22;;;;;;;10.15;3.33;;;;;;;;;;4954770;29;20047;-79
2022/12/23 08:23:48;;;;;;;7.90;2.78;;;;;;;;;;4955283;29;20035;-79
2022/12/23 08:26:22;;;;;;;6.55;3.00;;;;;;;;;;4953800;29;20171;-79
2022/12/23 08:28:52;;;;;;;6.88;2.88;;;;;;;;;;4954781;29;20027;-79
2022/12/23 08:31:30;;;;;;;9.52;3.58;;;;;;;;;;4953569;29;20024;-80
2022/12/23 08:33:57;;;;;;;8.02;2.78;;;;;;;;;;4954971;29;20030;-80
2022/12/23 08:36:25;;;;;;;7.55;3.72;;;;;;;;;;4953525;29;20023;-81
2022/12/23 08:38:53;;;;;;;5.78;3.33;;;;;;;;;;4954372;28;20027;-81
2022/12/23 08:41:21;;;;;;;6.40;3.42;;;;;;;;;;4951955;28;20050;-78
2022/12/23 08:43:47;;;;;;;5.90;3.22;;;;;;;;;;4952823;28;20146;-79
2022/12/23 08:46:13;;;;;;;4.90;3.25;;;;;;;;;;4949952;29;20475;-79
2022/12/23 08:48:39;;;;;;;5.40;3.33;;;;;;;;;;4934998;29;20020;-78
2022/12/23 08:51:08;;;;;;;6.78;2.78;;;;;;;;;;4941468;28;20075;-80
2022/12/23 08:53:34;;;;;;;5.90;3.15;;;;;;;;;;4935776;29;20032;-80
2022/12/23 08:56:05;;;;;;;5.55;3.00;;;;;;;;;;4932784;29;20040;-80
2022/12/23 08:58:31;;;;;;;6.18;3.38;;;;;;;;;;4949147;29;20094;-78
2022/12/23 09:00:57;;;;;;;4.85;2.72;;;;;;;;;;4948450;29;20036;-79
2022/12/23 09:03:23;;;;;;;9.05;4.82;;;;;;;;;;4934307;29;20031;-79
2022/12/23 09:05:49;;;;;;;9.43;3.60;;;;;;;;;;4934521;29;20628;-79
2022/12/23 09:08:14;;;;;;;4.88;3.20;;;;;;;;;;4931395;29;20082;-80
2022/12/23 09:10:42;;;;;;;8.45;3.67;;;;;;;;;;4934715;29;20030;-79
2022/12/23 09:13:11;;;;;;;7.25;3.90;;;;;;;;;;4933907;29;20089;-79
2022/12/23 09:15:43;;;;;;;8.10;4.57;;;;;;;;;;4935291;29;20036;-80
2022/12/23 09:18:10;;;;;;;6.70;3.63;;;;;;;;;;4945253;29;20032;-79
2022/12/23 09:20:36;;;;;;;4.53;3.00;;;;;;;;;;4920255;29;20024;-81
2022/12/23 09:23:02;;;;;;;3.90;2.80;;;;;;;;;;4932051;29;20031;-78
2022/12/23 09:25:28;;;;;;;5.25;2.85;;;;;;;;;;4929746;29;20092;-79
2022/12/23 09:27:53;;;;;;;5.20;3.25;;;;;;;;;;4931589;29;20036;-79
2022/12/23 09:30:19;;;;;;;6.35;2.58;;;;;;;;;;4929405;29;20036;-79
2022/12/23 09:32:44;;;;;;;9.07;3.28;;;;;;;;;;4931246;29;20465;-78
2022/12/23 09:35:10;;;;;;;6.25;2.75;;;;;;;;;;4934296;29;20625;-79
2022/12/23 09:37:35;;;;;;;6.85;2.60;;;;;;;;;;4936570;29;20038;-80
2022/12/23 09:40:02;;;;;;;2.90;2.22;;;;;;;;;;4948532;29;20432;-80
2022/12/23 09:42:51;;;;;;;4.03;2.40;;;;;;;;;;4948119;29;20035;-80
2022/12/23 09:45:43;;;;;;;3.97;1.90;;;;;;;;;;4951272;29;20050;-79
2022/12/23 09:48:14;;;;;;;5.53;2.13;;;;;;;;;;4951479;29;20035;-80
2022/12/23 09:50:40;;;;;;;4.87;2.27;;;;;;;;;;4953152;29;20023;-79
2022/12/23 09:53:22;;;;;;;4.07;2.60;;;;;;;;;;4940363;28;20347;-77
2022/12/23 09:55:54;;;;;;;4.22;2.00;;;;;;;;;;4948757;29;20491;-77
2022/12/23 09:58:30;;;;;;;4.60;2.60;;;;;;;;;;4914573;28;20038;-76
2022/12/23 10:01:20;;;;;;;6.30;2.70;;;;;;;;;;4942679;28;20062;-79
2022/12/23 10:04:05;;;;;;;6.07;2.60;;;;;;;;;;4944937;28;20444;-79
2022/12/23 10:06:33;;;;;;;3.95;2.15;;;;;;;;;;4941585;29;20099;-80
2022/12/23 10:09:05;;;;;;;7.72;4.93;;;;;;;;;;4946042;29;20024;-82
2022/12/23 10:11:40;;;;;;;4.70;2.30;;;;;;;;;;4937572;29;20034;-78
2022/12/23 10:14:17;;;;;;;3.33;2.08;;;;;;;;;;4949249;29;20030;-79
2022/12/23 10:16:54;;;;;;;2.22;1.52;;;;;;;;;;4932887;29;20042;-78
2022/12/23 10:19:40;;;;;;;3.35;2.05;;;;;;;;;;4942138;29;20036;-79
2022/12/23 10:22:20;;;;;;;3.08;1.50;;;;;;;;;;4921702;29;20050;-78
2022/12/23 10:24:47;;;;;;;2.78;1.80;;;;;;;;;;4951530;29;20027;-80
2022/12/23 10:27:36;;;;;;;3.53;2.05;;;;;;;;;;4952196;29;20097;-79
2022/12/23 10:30:12;;;;;;;3.33;2.15;;;;;;;;;;4950357;29;20055;-78
2022/12/23 10:32:58;;;;;;;9.98;1.90;;;;;;;;;;4935812;29;20027;-79
2022/12/23 10:35:49;;;;;;;18.88;8.70;;;;;;;;;;4937619;29;20494;-80
2022/12/23 10:38:15;;;;;;;2.50;1.60;;;;;;;;;;4940939;29;20035;-80
2022/12/23 10:41:01;;;;;;;3.28;1.60;;;;;;;;;;4945796;28;20547;-80
2022/12/23 10:43:45;;;;;;;3.42;1.27;;;;;;;;;;4950443;28;20101;-80
2022/12/23 10:46:36;;;;;;;2.03;0.90;;;;;;;;;;4947526;28;20813;-79
2022/12/23 10:49:19;;;;;;;3.20;0.80;;;;;;;;;;4933449;29;20724;-78
2022/12/23 10:51:51;;;;;;;4.20;0.80;;;;;;;;;;4936889;29;20035;-80
2022/12/23 10:54:22;;;;;;;5.85;3.08;;;;;;;;;;4944442;29;20027;-78
2022/12/23 10:56:48;;;;;;;2.53;0.93;;;;;;;;;;4932791;29;20067;-78
2022/12/23 10:59:20;;;;;;;1.35;0.82;;;;;;;;;;4935147;29;20449;-79
2022/12/23 11:01:51;;;;;;;1.17;0.73;;;;;;;;;;4927721;29;20104;-78
2022/12/23 11:04:24;;;;;;;1.10;1.00;;;;;;;;;;4917528;29;20027;-78
2022/12/23 11:06:51;;;;;;;1.40;0.85;;;;;;;;;;4946870;29;20448;-77
2022/12/23 11:09:22;;;;;;;0.88;0.80;;;;;;;;;;4920264;29;20548;-79
2022/12/23 11:11:58;;;;;;;5.10;2.72;;;;;;;;;;4943436;29;20043;-79
2022/12/23 11:14:36;;;;;;;1.00;0.80;;;;;;;;;;4930910;29;20049;-79
2022/12/23 11:17:02;;;;;;;0.65;0.65;;;;;;;;;;4933165;29;20020;-79
2022/12/23 11:19:28;;;;;;;0.95;0.88;;;;;;;;;;4931713;29;20030;-79
2022/12/23 11:21:56;;;;;;;2.42;0.60;;;;;;;;;;4946480;29;20412;-79
2022/12/23 11:24:23;;;;;;;0.82;0.77;;;;;;;;;;4924102;29;20031;-79
2022/12/23 11:27:01;;;;;;;2.95;0.70;;;;;;;;;;4932673;29;20031;-79
2022/12/23 11:29:33;;;;;;;0.90;0.90;;;;;;;;;;4946590;29;20031;-78
2022/12/23 11:31:59;;;;;;;1.70;0.70;;;;;;;;;;4930756;29;20486;-78
2022/12/23 11:34:26;;;;;;;1.40;0.77;;;;;;;;;;4932482;29;20039;-78
2022/12/23 11:36:57;;;;;;;2.45;0.93;;;;;;;;;;4926533;29;20027;-78
2022/12/23 11:39:28;;;;;;;1.08;0.77;;;;;;;;;;4937121;29;20063;-79
2022/12/23 11:42:03;;;;;;;2.45;1.30;;;;;;;;;;4929945;29;20031;-78
2022/12/23 11:44:34;;;;;;;2.95;1.20;;;;;;;;;;4936291;29;20066;-79
2022/12/23 11:47:22;;;;;;;2.22;1.10;;;;;;;;;;4942293;29;20047;-78
2022/12/23 11:49:54;;;;;;;11.40;1.40;;;;;;;;;;4915618;29;20046;-80
2022/12/23 11:52:23;;;;;;;1.92;0.80;;;;;;;;;;4945788;28;20027;-80
2022/12/23 11:54:52;;;;;;;1.92;0.95;;;;;;;;;;4941740;28;20035;-80
2022/12/23 11:57:22;;;;;;;2.03;0.80;;;;;;;;;;4958984;28;20031;-80
2022/12/23 11:59:49;;;;;;;2.17;0.98;;;;;;;;;;4934601;29;20082;-78
2022/12/23 12:02:30;;;;;;;2.08;0.98;;;;;;;;;;4933949;29;20032;-79
2022/12/23 12:05:17;;;;;;;1.77;1.10;;;;;;;;;;4951317;29;20035;-78
2022/12/23 12:07:43;;;;;;;2.38;1.30;;;;;;;;;;4935120;29;20032;-79
2022/12/23 12:10:17;;;;;;;2.47;1.23;;;;;;;;;;4946926;29;20042;-79
2022/12/23 12:12:43;;;;;;;1.50;0.88;;;;;;;;;;4939351;29;20031;-80
2022/12/23 12:15:35;;;;;;;1.92;1.00;;;;;;;;;;4951269;29;20024;-78
2022/12/23 12:18:05;;;;;;;3.63;2.83;;;;;;;;;;4918219;29;20350;-79
2022/12/23 12:20:36;;;;;;;3.78;1.10;;;;;;;;;;4945963;29;20031;-79
2022/12/23 12:23:09;;;;;;;0.88;0.70;;;;;;;;;;4942227;29;20033;-79
2022/12/23 12:26:09;;;;;;;3.13;1.25;;;;;;;;;;4935995;29;20039;-78
2022/12/23 12:28:40;;;;;;;2.45;0.90;;;;;;;;;;4937989;29;20534;-79
2022/12/23 12:31:29;;;;;;;3.22;1.10;;;;;;;;;;4941325;29;20020;-80
2022/12/23 12:34:15;;;;;;;0.95;0.77;;;;;;;;;;4946574;29;20039;-78
2022/12/23 12:37:14;;;;;;;1.58;0.90;;;;;;;;;;4939104;29;20042;-80
2022/12/23 12:39:44;;;;;;;3.22;1.05;;;;;;;;;;4954730;28;20033;-78
2022/12/23 12:42:15;;;;;;;3.30;1.58;;;;;;;;;;4934792;29;20368;-79
2022/12/23 12:44:41;;;;;;;2.70;1.08;;;;;;;;;;4926947;29;20121;-80
2022/12/23 12:47:19;;;;;;;3.42;1.35;;;;;;;;;;4924240;29;20142;-79
2022/12/23 12:49:53;;;;;;;1.65;0.98;;;;;;;;;;4934782;29;20122;-79
2022/12/23 12:52:24;;;;;;;1.63;1.27;;;;;;;;;;4939889;29;20105;-80
2022/12/23 12:54:56;;;;;;;1.35;1.02;;;;;;;;;;4931906;29;20370;-79
2022/12/23 12:57:23;;;;;;;2.30;1.02;;;;;;;;;;4934675;29;20032;-79
2022/12/23 12:59:53;;;;;;;1.85;1.10;;;;;;;;;;4935010;29;20087;-80
2022/12/23 13:02:40;;;;;;;2.72;1.30;;;;;;;;;;4936409;29;20059;-79
2022/12/23 13:05:31;;;;;;;2.20;1.23;;;;;;;;;;4955308;28;20054;-76
2022/12/23 13:08:38;;;;;;;5.72;1.48;;;;;;;;;;4938116;28;20031;-79
2022/12/23 13:11:18;;;;;;;6.30;1.23;;;;;;;;;;4953467;28;20039;-80
2022/12/23 13:14:18;;;;;;;2.22;1.13;;;;;;;;;;4943098;29;20019;-80
2022/12/23 13:17:05;;;;;;;2.08;0.70;;;;;;;;;;4961758;29;20070;-79
2022/12/23 13:19:50;;;;;;;2.22;0.98;;;;;;;;;;4930174;29;20101;-79
2022/12/23 13:22:20;;;;;;;2.78;1.17;;;;;;;;;;4953308;29;20535;-84
2022/12/23 13:25:00;;;;;;;1.48;1.00;;;;;;;;;;4945946;29;20438;-82
2022/12/23 13:27:37;;;;;;;3.50;1.27;;;;;;;;;;4919202;29;20032;-82
2022/12/23 13:30:16;;;;;;;2.38;1.23;;;;;;;;;;4937494;28;20059;-80
2022/12/23 13:32:41;;;;;;;1.77;1.00;;;;;;;;;;4928986;29;20107;-82
2022/12/23 13:36:04;;;;;;;2.97;1.10;;;;;;;;;;4922469;29;20039;-82
2022/12/23 13:38:56;;;;;;;1.95;0.98;;;;;;;;;;4885020;29;20360;-83
2022/12/23 13:41:30;;;;;;;1.85;1.10;;;;;;;;;;4877874;29;20123;-81
2022/12/23 13:44:08;;;;;;;6.30;1.08;;;;;;;;;;4925430;29;20540;-83
2022/12/23 13:46:48;;;;;;;2.20;1.27;;;;;;;;;;4934027;29;20067;-80
2022/12/23 13:49:23;;;;;;;2.30;1.15;;;;;;;;;;4922655;29;20558;-81
2022/12/23 13:51:55;;;;;;;1.63;1.08;;;;;;;;;;4934419;29;20023;-82
2022/12/23 13:54:42;;;;;;;2.97;1.45;;;;;;;;;;4930278;29;20028;-81
2022/12/23 13:57:38;;;;;;;4.00;0.93;;;;;;;;;;4944779;29;20071;-79
2022/12/23 14:00:16;;;;;;;2.47;0.80;;;;;;;;;;4921968;29;20028;-81
2022/12/23 14:02:51;;;;;;;1.63;1.52;;;;;;;;;;4929918;29;20040;-81
2022/12/23 14:05:28;;;;;;;2.25;1.00;;;;;;;;;;4942273;29;20730;-84
2022/12/23 14:07:55;;;;;;;2.17;1.02;;;;;;;;;;4934455;29;20108;-82
2022/12/23 14:10:23;;;;;;;3.88;1.67;;;;;;;;;;4940490;29;20032;-83
2022/12/23 14:12:50;;;;;;;3.30;1.30;;;;;;;;;;4926582;29;20043;-83
2022/12/23 14:15:34;;;;;;;3.28;1.77;;;;;;;;;;4936792;28;20047;-84
2022/12/23 14:18:30;;;;;;;3.95;2.10;;;;;;;;;;4920075;29;20083;-75
2022/12/23 14:21:22;;;;;;;3.85;1.80;;;;;;;;;;4934225;29;20110;-82
2022/12/23 14:24:07;;;;;;;;;;;;;;;;;;4934223;29;20453;-82
2022/12/23 14:26:38;;;;;;;8.50;1.50;;;;;;;;;;4922820;29;20316;-82
2022/12/23 14:29:36;;;;;;;2.22;1.55;;;;;;;;;;4927531;29;20122;-84
2022/12/23 14:32:02;;;;;;;4.40;1.55;;;;;;;;;;4933450;29;20074;-80
2022/12/23 14:34:32;;;;;;;3.38;1.33;;;;;;;;;;4924447;29;20453;-81
2022/12/23 14:37:20;;;;;;;2.55;1.23;;;;;;;;;;4942392;29;20031;-84
2022/12/23 14:39:47;;;;;;;3.22;1.30;;;;;;;;;;4918405;29;20019;-82
2022/12/23 14:42:31;;;;;;;6.20;1.90;;;;;;;;;;4934257;29;20036;-81
2022/12/23 14:45:29;;;;;;;3.90;1.80;;;;;;;;;;4954435;28;20122;-82
2022/12/23 14:47:54;;;;;;;2.33;1.38;;;;;;;;;;4934079;29;20033;-82
2022/12/23 14:50:34;;;;;;;4.90;2.35;;;;;;;;;;4941709;29;20459;-80
2022/12/23 14:53:03;;;;;;;4.57;1.75;;;;;;;;;;4948676;29;20027;-82
2022/12/23 14:55:31;;;;;;;3.88;1.85;;;;;;;;;;4938187;29;20035;-81
2022/12/23 14:58:25;;;;;;;2.38;1.55;;;;;;;;;;4929813;29;20023;-84
2022/12/23 15:01:26;;;;;;;6.60;2.58;;;;;;;;;;4928524;29;20027;-82
2022/12/23 15:03:52;;;;;;;6.35;2.88;;;;;;;;;;4926367;29;20145;-85
2022/12/23 15:06:28;;;;;;;5.45;2.47;;;;;;;;;;4966577;28;20522;-84
2022/12/23 15:08:55;;;;;;;4.70;3.58;;;;;;;;;;4959584;28;20366;-84
2022/12/23 15:11:27;;;;;;;4.38;3.13;;;;;;;;;;4935318;29;20023;-84
2022/12/23 15:13:55;;;;;;;6.70;3.45;;;;;;;;;;4960999;28;20116;-83
2022/12/23 15:16:33;;;;;;;9.68;5.38;;;;;;;;;;4952531;29;20027;-83
2022/12/23 15:19:05;;;;;;;10.73;5.85;;;;;;;;;;4937875;29;20038;-83
2022/12/23 15:21:33;;;;;;;9.75;5.05;;;;;;;;;;4932153;29;20118;-86
2022/12/23 15:23:59;;;;;;;10.00;6.10;;;;;;;;;;4924377;29;20031;-86
2022/12/23 15:26:29;;;;;;;11.60;6.68;;;;;;;;;;4943270;29;20030;-86
2022/12/23 15:28:56;;;;;;;12.43;6.72;;;;;;;;;;4945825;29;20035;-86
2022/12/23 15:31:36;;;;;;;11.68;6.32;;;;;;;;;;4953803;29;20031;-85